Impacts TAF Board
For situational awareness. Not to be used for flight planning purposes.
IDs:

KGJT - Grand Junction Rgnl, CO, US

Issued at 0531 UTC 27 Feb 2020
Updated at 0714 UTC 27 Feb 2020
Potential Impact None Slight Moderate High
Time0653Z 27/08Z 27/09Z 27/10Z 27/11Z 27/12Z 27/13Z 27/14Z 27/15Z 27/16Z 27/17Z 27/18Z 27/19Z 27/20Z>>
Type OBS PRVL PRVL PRVL PRVL PRVL PRVL PRVL PRVL PRVL PRVL PRVL PRVL PRVL
VIS 10 >6 >6 >6 >6 >6 >6 >6 >6 >6 >6 >6 >6 >6
CIG -- -- -- -- -- -- -- -- -- -- -- -- -- --
Cover CLR FEW FEW FEW FEW FEW FEW FEW FEW FEW FEW FEW FEW FEW
FltCat VFR VFR VFR VFR VFR VFR VFR VFR VFR VFR VFR VFR VFR VFR
WX -- -- -- -- -- -- -- -- -- -- -- -- -- --
WDir 80 90 90 VRB VRB VRB VRB VRB VRB VRB VRB VRB VRB VRB
WSpd 4 4 4 4 4 4 4 4 4 4 4 4 4 4
WGst -- -- -- -- -- -- -- -- -- -- -- -- -- --
Raw TAF
KGJT 270531Z 2706/2806 09004KT P6SM FEW110
  FM271000 VRB04KT P6SM FEW120 FEW250
  FM280000 VRB03KT P6SM SKC


Raw METAR
KGJT 270653Z AUTO 08004KT 10SM CLR M05/M16 A3038 RMK AO2 SLP311 T10501156 400561111
KGJT 270553Z AUTO 06004KT 10SM CLR M05/M16 A3038 RMK AO2 SLP317 T10501161 10050 21067 51004
KGJT 270453Z AUTO 08003KT 10SM CLR M06/M16 A3038 RMK AO2 SLP324 T10611161

METAR Board
Radar Display
Forecast Discussion
For situational awareness. Not to be used for flight planning purposes.